Time;durP1;ratioP1;P1;durP2;ratioP2;P2;SDS_P1;SDS_P2;PMS_P1;PMS_P2;Temp;Humidity;BMP_temperature;BMP_pressure;BME280_temperature;BME280_humidity;BME280_pressure;Samples;Min_cycle;Max_cycle;Signal;HPM_P1;HPM_P2
2021/12/17 00:00:45;;;;;;;0.98;0.57;;;6.60;99.90;;;;;;4422933;32;20062;-72
2021/12/17 00:03:18;;;;;;;0.70;0.70;;;6.60;99.90;;;;;;4424706;32;20119;-72
2021/12/17 00:06:04;;;;;;;0.82;0.82;;;6.50;99.90;;;;;;4421543;32;20124;-72
2021/12/17 00:08:29;;;;;;;0.62;0.62;;;6.50;99.90;;;;;;4418405;32;20529;-71
2021/12/17 00:10:55;;;;;;;0.82;0.82;;;6.50;99.90;;;;;;4430200;32;20085;-71
2021/12/17 00:13:21;;;;;;;1.85;1.12;;;6.50;99.90;;;;;;4418866;32;20089;-71
2021/12/17 00:15:47;;;;;;;1.95;1.45;;;6.60;99.90;;;;;;4426162;32;20082;-72
2021/12/17 00:18:22;;;;;;;0.50;0.50;;;6.60;99.90;;;;;;4423201;32;20161;-71
2021/12/17 00:43:50;;;;;;;0.55;0.55;;;6.50;99.90;;;;;;4412772;32;20105;-72
2021/12/17 00:44:14;;;;;;;1.98;1.25;;;6.40;99.90;;;;;;4417870;32;20087;-71
2021/12/17 00:48:40;;;;;;;0.65;0.65;;;6.40;99.90;;;;;;4405856;32;20137;-72
2021/12/17 00:51:56;;;;;;;1.83;1.35;;;6.40;99.90;;;;;;4426617;32;20113;-71
2021/12/17 00:54:08;;;;;;;0.60;0.60;;;6.40;99.90;;;;;;4412383;32;20077;-71
2021/12/17 00:56:35;;;;;;;2.53;1.25;;;6.50;99.90;;;;;;4419076;32;20546;-71
2021/12/17 00:59:00;;;;;;;2.45;1.40;;;6.40;99.90;;;;;;4425908;32;20070;-71
2021/12/17 01:01:26;;;;;;;1.10;1.02;;;6.50;99.90;;;;;;4421909;32;20101;-71
2021/12/17 01:03:52;;;;;;;6.80;1.15;;;6.50;99.90;;;;;;4426228;32;20384;-71
2021/12/17 01:06:19;;;;;;;1.23;0.60;;;6.50;99.90;;;;;;4431996;32;20070;-71
2021/12/17 01:08:45;;;;;;;0.40;0.40;;;6.40;99.90;;;;;;4427400;32;20086;-71
2021/12/17 01:11:11;;;;;;;0.98;0.57;;;6.40;99.90;;;;;;4423961;32;20061;-72
2021/12/17 01:13:38;;;;;;;9.30;1.58;;;6.40;99.90;;;;;;4434036;32;20133;-72
2021/12/17 01:16:04;;;;;;;0.43;0.43;;;6.40;99.90;;;;;;4421687;32;20105;-72
2021/12/17 01:18:45;;;;;;;9.15;1.65;;;6.40;99.90;;;;;;4421067;32;20069;-71
2021/12/17 01:21:59;;;;;;;2.10;1.35;;;6.40;99.90;;;;;;4428119;32;20042;-71
2021/12/17 01:24:29;;;;;;;0.70;0.70;;;6.30;99.90;;;;;;4412359;32;20552;-71
2021/12/17 01:35:32;;;;;;;0.40;0.40;;;6.30;99.90;;;;;;4407863;32;20069;-72
2021/12/17 01:38:43;;;;;;;4.03;2.00;;;6.30;99.90;;;;;;4410175;32;20078;-71
2021/12/17 01:41:03;;;;;;;0.57;0.57;;;6.40;99.90;;;;;;4418547;32;20073;-72
2021/12/17 01:43:19;;;;;;;7.78;3.37;;;6.40;99.90;;;;;;4415300;32;20791;-71
2021/12/17 01:45:44;;;;;;;23.70;1.12;;;6.40;99.90;;;;;;4419325;32;20070;-71
2021/12/17 01:48:16;;;;;;;0.47;0.47;;;6.40;99.90;;;;;;4425952;32;20077;-71
2021/12/17 01:59:36;;;;;;;2.75;1.85;;;6.50;99.90;;;;;;4421241;32;20490;-71
2021/12/17 02:01:43;;;;;;;1.30;1.20;;;6.50;99.90;;;;;;4407191;32;20058;-71
2021/12/17 02:04:08;;;;;;;0.57;0.57;;;6.50;99.90;;;;;;4424687;32;20439;-71
2021/12/17 02:06:37;;;;;;;0.62;0.62;;;6.40;99.90;;;;;;4427056;32;20163;-71
2021/12/17 02:09:15;;;;;;;0.40;0.40;;;6.40;99.90;;;;;;4425453;32;20542;-71
2021/12/17 02:12:14;;;;;;;1.12;1.05;;;6.40;99.90;;;;;;4425328;32;20070;-71
2021/12/17 02:19:44;;;;;;;1.60;0.73;;;6.40;99.90;;;;;;4407048;32;20113;-71
2021/12/17 02:28:57;;;;;;;1.00;0.70;;;6.40;99.90;;;;;;4405075;32;20139;-71
2021/12/17 02:29:26;;;;;;;5.82;0.73;;;6.40;99.90;;;;;;4405824;32;20181;-71
2021/12/17 02:31:59;;;;;;;1.73;0.75;;;6.40;99.90;;;;;;4417879;32;20546;-71
2021/12/17 02:34:54;;;;;;;5.72;1.05;;;6.40;99.90;;;;;;4426046;32;20057;-71
2021/12/17 02:37:17;;;;;;;9.73;1.40;;;6.40;99.90;;;;;;4406054;32;20066;-71
2021/12/17 02:45:56;;;;;;;0.40;0.40;;;6.50;99.90;;;;;;4415433;32;20130;-71
2021/12/17 02:47:41;;;;;;;0.85;0.85;;;6.40;99.90;;;;;;4407552;32;20600;-71
2021/12/17 02:50:09;;;;;;;2.62;1.95;;;6.50;99.90;;;;;;4430210;32;20061;-71
2021/12/17 02:52:37;;;;;;;8.95;1.08;;;6.40;99.90;;;;;;4428469;32;20069;-71
2021/12/17 02:55:06;;;;;;;7.12;1.35;;;6.50;99.90;;;;;;4425280;32;20129;-71
2021/12/17 02:57:34;;;;;;;1.10;0.65;;;6.40;99.90;;;;;;4422476;32;20561;-71
2021/12/17 03:00:05;;;;;;;0.40;0.40;;;6.30;99.90;;;;;;4423735;32;20081;-71
2021/12/17 03:02:34;;;;;;;0.50;0.50;;;6.50;99.90;;;;;;4431017;32;20427;-71
2021/12/17 03:05:00;;;;;;;2.83;0.77;;;6.50;99.90;;;;;;4426600;32;20436;-71
2021/12/17 03:07:27;;;;;;;28.15;1.77;;;6.50;99.90;;;;;;4422160;32;20057;-71
2021/12/17 03:10:03;;;;;;;0.95;0.93;;;6.40;99.90;;;;;;4429210;32;20073;-71
2021/12/17 03:12:37;;;;;;;0.68;0.68;;;6.40;99.90;;;;;;4428065;32;20509;-73
2021/12/17 03:15:15;;;;;;;1.42;1.33;;;6.40;99.90;;;;;;4422889;32;20120;-71
2021/12/17 03:23:24;;;;;;;6.20;1.00;;;6.40;99.90;;;;;;4418651;32;20061;-71
2021/12/17 03:23:45;;;;;;;6.18;1.70;;;6.40;99.90;;;;;;4403830;32;20128;-72
2021/12/17 03:26:03;;;;;;;0.95;0.90;;;6.50;99.90;;;;;;4409371;32;20561;-72
2021/12/17 03:28:30;;;;;;;0.43;0.43;;;6.40;99.90;;;;;;4419137;32;20101;-71
2021/12/17 03:30:55;;;;;;;11.20;2.17;;;6.40;99.90;;;;;;4428879;32;20099;-71
2021/12/17 03:33:21;;;;;;;0.60;0.60;;;6.40;99.90;;;;;;4429124;32;20074;-71
2021/12/17 03:35:48;;;;;;;0.68;0.52;;;6.50;99.90;;;;;;4428045;32;20120;-71
2021/12/17 03:38:14;;;;;;;0.62;0.62;;;6.50;99.90;;;;;;4419857;32;20070;-71
2021/12/17 03:40:41;;;;;;;27.02;0.77;;;6.40;99.90;;;;;;4426613;32;20069;-71
2021/12/17 03:43:13;;;;;;;7.82;2.60;;;6.40;99.90;;;;;;4421054;32;20062;-72
2021/12/17 03:45:41;;;;;;;0.52;0.50;;;6.30;99.90;;;;;;4421959;32;20086;-71
2021/12/17 03:48:07;;;;;;;0.70;0.70;;;6.30;99.90;;;;;;4417433;32;20439;-71
2021/12/17 03:50:34;;;;;;;7.03;2.83;;;6.30;99.90;;;;;;4424631;32;20069;-71
2021/12/17 03:53:00;;;;;;;2.58;1.05;;;6.30;99.90;;;;;;4415103;32;20062;-72
2021/12/17 03:55:26;;;;;;;2.80;1.70;;;6.30;99.90;;;;;;4416981;32;20085;-71
2021/12/17 03:57:52;;;;;;;6.55;2.05;;;6.30;99.90;;;;;;4417816;32;20061;-71
2021/12/17 04:00:17;;;;;;;0.50;0.50;;;6.30;99.90;;;;;;4420415;32;20082;-72
2021/12/17 04:02:44;;;;;;;0.32;0.32;;;6.30;99.90;;;;;;4417886;32;20561;-72
2021/12/17 04:05:09;;;;;;;0.30;0.30;;;6.30;99.90;;;;;;4417600;32;20077;-71
2021/12/17 04:07:35;;;;;;;2.00;1.52;;;6.30;99.90;;;;;;4422563;32;20576;-71
2021/12/17 04:10:00;;;;;;;0.73;0.73;;;6.30;99.90;;;;;;4429784;32;20109;-71
2021/12/17 04:12:52;;;;;;;0.55;0.55;;;6.30;99.90;;;;;;4429987;32;20054;-71
2021/12/17 04:15:13;;;;;;;0.65;0.65;;;6.30;99.90;;;;;;4416338;32;20090;-71
2021/12/17 04:17:44;;;;;;;1.80;1.02;;;6.30;99.90;;;;;;4428152;32;20081;-71
2021/12/17 04:20:10;;;;;;;;;;;6.30;99.90;;;;;;4423697;32;20121;-71
2021/12/17 04:22:36;;;;;;;2.30;0.95;;;6.30;99.90;;;;;;4430765;32;19944;-71
2021/12/17 04:25:02;;;;;;;0.68;0.45;;;6.30;99.90;;;;;;4417390;32;20129;-71
2021/12/17 04:27:27;;;;;;;3.90;1.55;;;6.30;99.90;;;;;;4421828;32;20054;-71
2021/12/17 04:29:53;;;;;;;0.35;0.35;;;6.20;99.90;;;;;;4416114;32;20085;-72
2021/12/17 04:32:19;;;;;;;19.60;0.77;;;6.30;99.90;;;;;;4421272;32;86526;-72
2021/12/17 04:34:45;;;;;;;0.95;0.85;;;6.30;99.90;;;;;;4419686;32;20136;-71
2021/12/17 04:37:10;;;;;;;1.08;1.05;;;6.40;99.90;;;;;;4420601;32;20065;-71
2021/12/17 04:39:36;;;;;;;0.40;0.40;;;6.40;99.90;;;;;;4414723;32;20066;-72
2021/12/17 04:42:09;;;;;;;3.40;1.52;;;6.40;99.90;;;;;;4415028;32;20069;-71
2021/12/17 04:44:37;;;;;;;7.05;2.05;;;6.50;99.90;;;;;;4422416;32;20081;-71
2021/12/17 04:57:18;;;;;;;0.60;0.60;;;6.40;99.90;;;;;;4421632;32;20090;-72
2021/12/17 04:57:38;;;;;;;1.25;1.12;;;6.40;99.90;;;;;;4418795;32;20061;-71
2021/12/17 04:57:53;;;;;;;0.40;0.40;;;6.30;99.90;;;;;;4416208;32;20062;-72
2021/12/17 05:00:23;;;;;;;2.55;1.45;;;6.30;99.90;;;;;;4422964;32;20065;-72
2021/12/17 05:02:53;;;;;;;6.10;1.37;;;6.30;99.90;;;;;;4414850;32;20101;-72
2021/12/17 05:05:22;;;;;;;0.52;0.52;;;6.30;99.90;;;;;;4421775;32;20135;-72
2021/12/17 05:07:53;;;;;;;2.33;0.98;;;6.40;99.90;;;;;;4423610;32;20206;-71
2021/12/17 05:11:38;;;;;;;5.22;0.93;;;6.40;99.90;;;;;;4429304;32;20070;-71
2021/12/17 05:18:46;;;;;;;1.27;0.98;;;6.40;99.90;;;;;;4404329;32;20058;-72
2021/12/17 05:21:12;;;;;;;2.95;1.00;;;6.40;99.90;;;;;;4411160;32;20085;-71
2021/12/17 05:23:42;;;;;;;2.65;1.00;;;6.50;99.90;;;;;;4418235;32;20093;-72
2021/12/17 05:26:11;;;;;;;1.87;0.50;;;6.50;99.90;;;;;;4413433;32;20094;-72
2021/12/17 05:28:38;;;;;;;0.40;0.40;;;6.50;99.90;;;;;;4416956;32;20058;-72
2021/12/17 05:31:03;;;;;;;3.10;1.25;;;6.50;99.90;;;;;;4413348;32;20077;-71
2021/12/17 05:33:30;;;;;;;0.70;0.70;;;6.40;99.90;;;;;;4413474;32;20086;-71
2021/12/17 05:35:57;;;;;;;9.07;1.48;;;6.40;99.90;;;;;;4414100;32;20069;-71
2021/12/17 05:38:24;;;;;;;4.53;0.85;;;6.40;99.90;;;;;;4420124;32;20521;-71
2021/12/17 05:40:50;;;;;;;1.15;1.05;;;6.40;99.90;;;;;;4415454;32;20128;-72
2021/12/17 05:43:16;;;;;;;3.42;1.65;;;6.40;99.90;;;;;;4419115;32;20564;-71
2021/12/17 05:48:10;;;;;;;0.82;0.82;;;6.40;99.90;;;;;;4425386;32;20121;-71
2021/12/17 05:50:39;;;;;;;7.05;1.48;;;6.40;99.90;;;;;;4424152;32;20142;-71
2021/12/17 05:53:05;;;;;;;0.68;0.68;;;6.40;99.90;;;;;;4417480;32;20191;-71
2021/12/17 05:55:32;;;;;;;1.02;0.95;;;6.40;99.90;;;;;;4424588;32;20065;-72
2021/12/17 05:57:58;;;;;;;0.50;0.50;;;6.30;99.90;;;;;;4422073;32;20062;-72
2021/12/17 06:00:24;;;;;;;3.97;1.77;;;6.40;99.90;;;;;;4417868;32;20078;-71
2021/12/17 06:02:50;;;;;;;0.57;0.45;;;6.40;99.90;;;;;;4415736;32;20103;-71
2021/12/17 06:05:16;;;;;;;0.60;0.60;;;6.30;99.90;;;;;;4420649;32;20089;-72
2021/12/17 06:07:42;;;;;;;0.73;0.57;;;6.30;99.90;;;;;;4424269;32;20403;-72
2021/12/17 06:10:09;;;;;;;0.50;0.50;;;6.40;99.90;;;;;;4430302;32;20082;-72
2021/12/17 06:12:37;;;;;;;0.90;0.70;;;6.30;99.90;;;;;;4422156;32;20093;-72
2021/12/17 06:15:05;;;;;;;0.62;0.62;;;6.20;99.90;;;;;;4419525;32;20085;-72
2021/12/17 06:17:30;;;;;;;2.20;1.42;;;6.30;99.90;;;;;;4412406;32;20378;-71
2021/12/17 06:19:56;;;;;;;1.75;1.15;;;6.30;99.90;;;;;;4427421;32;20144;-71
2021/12/17 06:22:22;;;;;;;1.65;1.00;;;6.30;99.90;;;;;;4426999;32;20061;-72
2021/12/17 06:24:47;;;;;;;0.62;0.62;;;6.30;99.90;;;;;;4426658;32;20428;-72
2021/12/17 06:27:16;;;;;;;5.37;1.00;;;6.20;99.90;;;;;;4410849;32;20518;-72
2021/12/17 06:29:42;;;;;;;0.60;0.60;;;6.20;99.90;;;;;;4419240;32;20245;-72
2021/12/17 06:32:14;;;;;;;3.20;1.20;;;6.20;99.90;;;;;;4399390;32;20093;-71
2021/12/17 06:34:41;;;;;;;0.73;0.73;;;6.20;99.90;;;;;;4423262;32;20309;-71
2021/12/17 06:37:09;;;;;;;1.92;1.05;;;6.20;99.90;;;;;;4415218;32;20113;-71
2021/12/17 06:39:36;;;;;;;0.35;0.35;;;6.20;99.90;;;;;;4418681;32;20097;-71
2021/12/17 06:42:04;;;;;;;1.60;0.70;;;6.20;99.90;;;;;;4419274;32;20081;-71
2021/12/17 06:44:30;;;;;;;15.95;1.12;;;6.20;99.90;;;;;;4418197;32;20115;-72
2021/12/17 06:47:03;;;;;;;1.23;1.20;;;6.30;99.90;;;;;;4420622;32;20081;-71
2021/12/17 06:55:38;;;;;;;4.22;1.80;;;6.40;99.90;;;;;;4398133;32;20073;-71
2021/12/17 07:01:13;;;;;;;0.50;0.50;;;6.40;99.90;;;;;;4405355;32;20101;-71
2021/12/17 07:10:52;;;;;;;13.90;1.42;;;6.30;99.90;;;;;;4414217;32;20109;-71
2021/12/17 07:17:14;;;;;;;4.18;1.45;;;6.20;99.90;;;;;;4389297;32;20076;-70
2021/12/17 07:21:57;;;;;;;2.55;1.20;;;6.20;99.90;;;;;;4391898;32;20690;-70
2021/12/17 07:28:24;;;;;;;0.40;0.40;;;6.20;99.90;;;;;;4392749;32;20145;-68
2021/12/17 07:40:09;;;;;;;4.15;1.48;;;6.40;99.90;;;;;;4412837;32;20050;-71
2021/12/17 07:42:36;;;;;;;0.57;0.50;;;6.50;99.90;;;;;;4411122;32;20089;-71
2021/12/17 07:45:03;;;;;;;0.40;0.40;;;6.50;99.90;;;;;;4402738;32;20117;-71
2021/12/17 07:47:30;;;;;;;0.60;0.60;;;6.50;99.90;;;;;;4410259;32;20097;-72
2021/12/17 07:49:56;;;;;;;1.42;1.17;;;6.60;99.90;;;;;;4408572;32;20082;-71
2021/12/17 07:52:21;;;;;;;0.45;0.45;;;6.60;99.90;;;;;;4405697;32;20101;-71
2021/12/17 07:54:47;;;;;;;0.30;0.30;;;6.50;99.90;;;;;;4411542;32;20648;-72
2021/12/17 07:57:13;;;;;;;1.35;1.08;;;6.50;99.90;;;;;;4410415;32;20093;-72
2021/12/17 07:59:40;;;;;;;0.75;0.75;;;6.50;99.90;;;;;;4412201;32;20196;-71
2021/12/17 08:02:06;;;;;;;0.60;0.60;;;6.50;99.90;;;;;;4409758;32;20420;-71
2021/12/17 08:04:32;;;;;;;0.52;0.52;;;6.50;99.90;;;;;;4414895;32;20077;-72
2021/12/17 08:06:57;;;;;;;0.50;0.50;;;6.60;99.90;;;;;;4416876;32;20102;-71
2021/12/17 08:09:24;;;;;;;0.77;0.77;;;6.60;99.90;;;;;;4410230;32;21716;-71
2021/12/17 08:11:57;;;;;;;8.18;1.40;;;6.60;99.90;;;;;;4409587;32;20090;-72
2021/12/17 08:14:25;;;;;;;0.40;0.40;;;6.60;99.90;;;;;;4408896;32;20100;-71
2021/12/17 08:23:35;;;;;;;1.20;0.80;;;6.60;99.90;;;;;;4401480;32;20707;-72
2021/12/17 08:24:56;;;;;;;6.25;2.25;;;6.60;99.90;;;;;;4402575;32;20085;-71
2021/12/17 08:27:28;;;;;;;0.68;0.55;;;6.60;99.90;;;;;;4412494;32;20097;-71
2021/12/17 08:30:19;;;;;;;3.53;0.73;;;6.50;99.90;;;;;;4409519;32;20081;-72
2021/12/17 08:32:42;;;;;;;0.30;0.30;;;6.50;99.90;;;;;;4406775;32;20097;-72
2021/12/17 08:35:09;;;;;;;19.17;0.85;;;6.50;99.90;;;;;;4412761;32;20463;-69
2021/12/17 08:37:34;;;;;;;5.53;1.20;;;6.50;99.90;;;;;;4420396;32;20247;-72
2021/12/17 08:40:08;;;;;;;0.50;0.50;;;6.50;99.90;;;;;;4418957;32;20129;-69
2021/12/17 08:42:33;;;;;;;5.00;1.05;;;6.60;99.90;;;;;;4410360;32;20082;-71
2021/12/17 08:45:00;;;;;;;1.30;0.95;;;6.60;99.90;;;;;;4404583;32;20602;-72
2021/12/17 08:47:26;;;;;;;0.50;0.50;;;6.60;99.90;;;;;;4399904;32;20223;-72
2021/12/17 08:49:53;;;;;;;0.40;0.40;;;6.70;99.90;;;;;;4403723;32;20085;-73
2021/12/17 08:52:19;;;;;;;0.45;0.45;;;6.70;99.90;;;;;;4404249;32;20107;-72
2021/12/17 08:54:44;;;;;;;0.43;0.43;;;6.60;99.90;;;;;;4404211;32;20077;-73
2021/12/17 08:57:10;;;;;;;0.52;0.52;;;6.80;99.90;;;;;;4404987;32;20079;-72
2021/12/17 08:59:36;;;;;;;22.90;1.73;;;6.70;99.90;;;;;;4410086;32;20476;-72
2021/12/17 09:02:02;;;;;;;4.05;1.62;;;6.80;99.90;;;;;;4414195;32;20308;-71
2021/12/17 09:04:29;;;;;;;0.70;0.70;;;6.80;99.90;;;;;;4413943;32;20136;-72
2021/12/17 09:06:55;;;;;;;1.17;0.95;;;6.80;99.90;;;;;;4415366;32;20102;-72
2021/12/17 09:09:22;;;;;;;32.72;1.00;;;6.80;99.90;;;;;;4409979;32;20426;-72
2021/12/17 09:11:48;;;;;;;0.50;0.50;;;6.90;99.90;;;;;;4408310;32;20069;-72
2021/12/17 09:14:15;;;;;;;4.07;2.40;;;6.90;99.90;;;;;;4415926;32;20082;-71
2021/12/17 09:16:41;;;;;;;4.25;1.55;;;6.90;99.90;;;;;;4413291;32;20085;-72
2021/12/17 09:19:09;;;;;;;0.80;0.80;;;6.90;99.90;;;;;;4414687;32;20618;-72
2021/12/17 09:21:35;;;;;;;6.93;1.25;;;6.90;99.90;;;;;;4411485;32;20616;-72
2021/12/17 09:24:01;;;;;;;0.40;0.40;;;7.00;99.90;;;;;;4408000;32;20139;-72
2021/12/17 09:26:26;;;;;;;0.52;0.52;;;6.90;99.90;;;;;;4402658;32;20517;-72
2021/12/17 09:28:52;;;;;;;0.52;0.52;;;6.90;99.90;;;;;;4410564;32;20515;-72
2021/12/17 09:31:18;;;;;;;0.65;0.60;;;6.90;99.90;;;;;;4412079;32;20054;-71
2021/12/17 09:33:46;;;;;;;4.12;1.12;;;6.90;99.90;;;;;;4412040;32;20077;-71
2021/12/17 09:36:12;;;;;;;0.37;0.37;;;6.90;99.90;;;;;;4410640;32;20090;-71
2021/12/17 09:38:38;;;;;;;2.55;0.47;;;6.90;99.90;;;;;;4414039;32;20557;-71
2021/12/17 09:41:04;;;;;;;1.90;0.88;;;7.00;99.90;;;;;;4412127;32;20534;-71
2021/12/17 09:43:32;;;;;;;3.40;1.52;;;7.00;99.90;;;;;;4411479;32;20136;-70
2021/12/17 09:45:58;;;;;;;6.40;0.88;;;7.10;99.90;;;;;;4413986;32;20085;-71
2021/12/17 09:48:24;;;;;;;0.50;0.50;;;7.10;99.90;;;;;;4414078;32;20069;-70
2021/12/17 09:50:52;;;;;;;0.30;0.30;;;7.10;99.90;;;;;;4415424;32;20565;-71
2021/12/17 09:53:17;;;;;;;6.35;1.58;;;7.10;99.90;;;;;;4415803;32;20403;-70
2021/12/17 09:55:43;;;;;;;0.60;0.60;;;7.10;99.90;;;;;;4412885;32;20715;-70
2021/12/17 09:58:08;;;;;;;0.52;0.52;;;7.10;99.90;;;;;;4417692;32;20066;-70
2021/12/17 10:00:34;;;;;;;0.95;0.95;;;7.10;99.90;;;;;;4415193;32;20592;-70
2021/12/17 10:02:59;;;;;;;0.43;0.43;;;7.10;99.90;;;;;;4413294;32;20086;-70
2021/12/17 10:05:30;;;;;;;0.95;0.95;;;7.10;99.90;;;;;;4413680;32;20093;-70
2021/12/17 10:08:17;;;;;;;0.55;0.55;;;7.10;99.90;;;;;;4416344;32;20468;-70
2021/12/17 10:10:46;;;;;;;0.50;0.50;;;7.20;99.90;;;;;;4415400;32;20144;-71
2021/12/17 10:13:15;;;;;;;1.08;0.70;;;7.10;99.90;;;;;;4414054;32;20100;-70
2021/12/17 10:15:43;;;;;;;0.98;0.82;;;7.10;99.90;;;;;;4414461;32;20128;-71
2021/12/17 10:18:10;;;;;;;0.35;0.35;;;7.20;99.90;;;;;;4413592;32;20093;-70
2021/12/17 10:20:55;;;;;;;1.02;0.93;;;7.20;99.90;;;;;;4414202;32;20865;-71
2021/12/17 10:23:23;;;;;;;2.47;1.58;;;7.20;99.90;;;;;;4408199;32;20079;-70
2021/12/17 10:25:49;;;;;;;0.40;0.40;;;7.20;99.90;;;;;;4408952;32;20620;-69
2021/12/17 10:28:15;;;;;;;0.50;0.50;;;7.20;99.90;;;;;;4402666;32;20101;-69
2021/12/17 10:30:44;;;;;;;0.85;0.85;;;7.20;99.90;;;;;;4414384;32;20141;-70
2021/12/17 10:33:17;;;;;;;0.57;0.50;;;7.20;99.90;;;;;;4423322;32;20064;-70
2021/12/17 10:35:45;;;;;;;1.87;1.33;;;7.20;99.90;;;;;;4422189;32;20125;-70
2021/12/17 10:38:23;;;;;;;2.92;1.33;;;7.10;99.90;;;;;;4422018;32;20082;-70
2021/12/17 10:41:02;;;;;;;0.77;0.70;;;7.20;99.90;;;;;;4420587;32;20303;-70
2021/12/17 10:43:34;;;;;;;0.40;0.40;;;7.20;99.90;;;;;;4421941;32;20078;-70
2021/12/17 10:46:07;;;;;;;0.50;0.50;;;7.30;99.90;;;;;;4424757;32;20117;-70
2021/12/17 10:51:20;;;;;;;5.57;1.95;;;7.30;99.90;;;;;;4407612;32;20611;-69
2021/12/17 10:53:53;;;;;;;0.40;0.40;;;7.30;99.90;;;;;;4395115;32;20114;-70
2021/12/17 10:56:21;;;;;;;2.05;0.98;;;7.30;99.90;;;;;;4412945;32;20183;-69
2021/12/17 10:58:57;;;;;;;4.37;1.20;;;7.30;99.90;;;;;;4412570;32;20661;-70
2021/12/17 11:01:33;;;;;;;7.12;3.35;;;7.30;99.90;;;;;;4412544;32;20086;-71
2021/12/17 11:04:09;;;;;;;0.30;0.30;;;7.30;99.90;;;;;;4411753;32;20085;-70
2021/12/17 11:06:43;;;;;;;8.70;1.05;;;7.40;99.90;;;;;;4410918;32;20092;-71
2021/12/17 11:09:10;;;;;;;0.80;0.65;;;7.40;99.90;;;;;;4414695;32;20074;-71
2021/12/17 11:11:41;;;;;;;5.80;1.27;;;7.30;99.90;;;;;;4401965;32;20093;-69
2021/12/17 11:14:07;;;;;;;0.70;0.50;;;7.30;99.90;;;;;;4410414;32;20085;-70
2021/12/17 11:16:36;;;;;;;0.62;0.62;;;7.40;99.90;;;;;;4402470;32;20188;-71
2021/12/17 11:19:03;;;;;;;0.50;0.50;;;7.50;99.90;;;;;;4405540;32;20065;-70
2021/12/17 11:21:29;;;;;;;3.67;1.10;;;7.50;99.90;;;;;;4413422;32;20569;-67
2021/12/17 11:23:55;;;;;;;5.78;1.62;;;7.50;99.90;;;;;;4407755;32;20600;-69
2021/12/17 11:26:21;;;;;;;0.52;0.52;;;7.60;99.90;;;;;;4408598;32;20359;-70
2021/12/17 11:28:47;;;;;;;0.30;0.30;;;7.60;99.90;;;;;;4410046;32;20136;-69
2021/12/17 11:31:12;;;;;;;8.00;0.98;;;7.60;99.90;;;;;;4411276;32;20106;-70
2021/12/17 11:33:38;;;;;;;1.10;0.50;;;7.60;99.90;;;;;;4412449;32;20086;-70
2021/12/17 11:36:04;;;;;;;3.40;1.55;;;7.60;99.90;;;;;;4415622;32;20494;-70
2021/12/17 11:38:54;;;;;;;0.30;0.30;;;7.60;99.90;;;;;;4417723;32;20209;-71
2021/12/17 11:41:34;;;;;;;4.03;1.60;;;7.60;99.90;;;;;;4411409;32;20085;-70
2021/12/17 11:44:01;;;;;;;1.00;1.00;;;7.60;99.90;;;;;;4408254;32;20138;-69
2021/12/17 11:46:32;;;;;;;0.50;0.50;;;7.60;99.90;;;;;;4409850;32;20480;-69
2021/12/17 11:49:00;;;;;;;1.27;0.62;;;7.60;99.90;;;;;;4409328;32;20069;-72
2021/12/17 11:51:29;;;;;;;0.80;0.80;;;7.50;99.90;;;;;;4407910;32;20108;-70
2021/12/17 11:53:59;;;;;;;0.45;0.45;;;7.50;99.90;;;;;;4408377;32;20110;-71
2021/12/17 11:56:40;;;;;;;0.50;0.50;;;7.50;99.90;;;;;;4396767;32;20148;-70
2021/12/17 11:59:07;;;;;;;3.00;1.30;;;7.40;99.90;;;;;;4401768;32;20554;-70
2021/12/17 12:02:02;;;;;;;3.95;0.80;;;7.40;99.90;;;;;;4409983;32;20085;-70
2021/12/17 12:04:38;;;;;;;0.40;0.40;;;7.40;99.90;;;;;;4403454;32;20506;-71
2021/12/17 12:07:09;;;;;;;0.73;0.73;;;7.40;99.90;;;;;;4413716;32;20132;-70
2021/12/17 12:09:55;;;;;;;0.50;0.47;;;7.40;99.90;;;;;;4414587;32;20398;-70
2021/12/17 12:12:21;;;;;;;6.62;1.12;;;7.50;99.90;;;;;;4411824;32;20098;-70
2021/12/17 12:14:47;;;;;;;0.30;0.30;;;7.50;99.90;;;;;;4414544;32;20309;-71
2021/12/17 12:17:13;;;;;;;0.52;0.52;;;7.60;99.90;;;;;;4418399;32;20074;-70
2021/12/17 12:19:54;;;;;;;1.10;1.05;;;7.60;99.90;;;;;;4417453;32;20348;-71
2021/12/17 12:22:43;;;;;;;0.55;0.55;;;7.60;99.90;;;;;;4413328;32;20439;-70
2021/12/17 12:25:29;;;;;;;6.82;1.00;;;7.70;99.90;;;;;;4400027;32;20072;-70
2021/12/17 12:27:55;;;;;;;0.30;0.30;;;7.70;99.90;;;;;;4404932;32;20770;-70
2021/12/17 12:30:42;;;;;;;0.70;0.70;;;7.60;99.90;;;;;;4415489;32;20082;-70
2021/12/17 12:33:10;;;;;;;9.02;0.77;;;7.60;99.90;;;;;;4403508;32;20489;-69
2021/12/17 12:35:36;;;;;;;1.02;0.65;;;7.60;99.90;;;;;;4413757;32;20085;-71
2021/12/17 12:38:20;;;;;;;0.40;0.40;;;7.60;99.90;;;;;;4416201;32;20109;-70
2021/12/17 12:40:57;;;;;;;0.60;0.60;;;7.60;99.90;;;;;;4416339;32;20284;-70
2021/12/17 12:43:30;;;;;;;0.70;0.70;;;7.60;99.90;;;;;;4412952;32;20631;-70
2021/12/17 12:45:56;;;;;;;5.78;3.05;;;7.70;99.90;;;;;;4410359;32;20078;-70
2021/12/17 12:48:39;;;;;;;0.30;0.30;;;7.70;99.90;;;;;;4408654;32;20322;-70
2021/12/17 12:51:21;;;;;;;0.40;0.40;;;7.70;99.90;;;;;;4414223;32;20145;-70
2021/12/17 12:54:08;;;;;;;0.50;0.50;;;7.70;99.90;;;;;;4417506;32;20066;-69
2021/12/17 12:56:38;;;;;;;4.30;2.15;;;7.70;99.90;;;;;;4399561;32;20160;-68
2021/12/17 12:59:06;;;;;;;1.00;0.73;;;7.60;99.90;;;;;;4415654;32;20144;-68
2021/12/17 13:01:31;;;;;;;0.88;0.88;;;7.60;99.90;;;;;;4414829;32;20208;-69
2021/12/17 13:03:57;;;;;;;2.45;1.35;;;7.60;99.90;;;;;;4414967;32;20145;-69
2021/12/17 13:06:23;;;;;;;2.22;0.90;;;7.60;99.90;;;;;;4414899;32;20085;-67
2021/12/17 13:08:55;;;;;;;2.17;0.75;;;7.60;99.90;;;;;;4414812;32;20114;-69
2021/12/17 13:11:21;;;;;;;0.40;0.40;;;7.60;99.90;;;;;;4410218;32;20121;-68
2021/12/17 13:13:59;;;;;;;0.55;0.55;;;7.50;99.90;;;;;;4415882;32;20085;-68
2021/12/17 13:21:02;;;;;;;0.60;0.60;;;7.50;99.90;;;;;;4412939;32;20545;-68
2021/12/17 13:21:47;;;;;;;1.42;1.33;;;7.50;99.90;;;;;;4400880;32;20427;-68
2021/12/17 13:24:16;;;;;;;0.60;0.60;;;7.60;99.90;;;;;;4414127;32;20168;-68
2021/12/17 13:26:46;;;;;;;0.80;0.47;;;7.60;99.90;;;;;;4413834;32;20430;-69
2021/12/17 13:29:24;;;;;;;0.30;0.30;;;7.50;99.90;;;;;;4405607;32;20129;-69
2021/12/17 13:32:07;;;;;;;0.82;0.82;;;7.70;99.90;;;;;;4415606;32;20077;-67
2021/12/17 13:34:38;;;;;;;0.55;0.55;;;7.60;99.90;;;;;;4414920;32;20608;-69
2021/12/17 13:37:24;;;;;;;1.02;0.98;;;7.60;99.90;;;;;;4414766;32;20077;-69
2021/12/17 13:40:09;;;;;;;22.55;0.68;;;7.60;99.90;;;;;;4412289;32;20069;-68
2021/12/17 13:42:42;;;;;;;0.30;0.30;;;7.60;99.90;;;;;;4414370;32;20149;-69
2021/12/17 13:45:11;;;;;;;0.50;0.50;;;7.60;99.90;;;;;;4422628;32;20077;-68
2021/12/17 13:47:43;;;;;;;0.50;0.50;;;7.60;99.90;;;;;;4421617;32;20317;-69
2021/12/17 13:50:15;;;;;;;2.28;0.85;;;7.70;99.90;;;;;;4417928;32;20069;-69
2021/12/17 13:53:03;;;;;;;0.73;0.60;;;7.60;99.90;;;;;;4419506;32;20069;-68
2021/12/17 13:55:40;;;;;;;4.25;0.73;;;7.50;99.90;;;;;;4402951;32;20430;-70
2021/12/17 13:58:08;;;;;;;29.02;0.88;;;7.50;99.90;;;;;;4424563;32;20788;-69
2021/12/17 14:00:39;;;;;;;0.62;0.43;;;7.50;99.90;;;;;;4423764;32;20451;-69
2021/12/17 14:03:08;;;;;;;1.33;1.20;;;7.50;99.90;;;;;;4417810;32;20066;-68
2021/12/17 14:05:46;;;;;;;2.08;0.70;;;7.50;99.90;;;;;;4416365;32;20087;-68
2021/12/17 14:08:13;;;;;;;2.72;0.73;;;7.50;99.90;;;;;;4420101;32;20545;-68
2021/12/17 14:10:40;;;;;;;8.57;0.65;;;7.60;99.90;;;;;;4417225;32;20070;-67
2021/12/17 14:13:16;;;;;;;0.32;0.32;;;7.60;99.90;;;;;;4421976;32;20082;-68
2021/12/17 14:15:44;;;;;;;0.47;0.47;;;7.50;99.90;;;;;;4421535;32;20069;-68
2021/12/17 14:18:13;;;;;;;0.75;0.75;;;7.50;99.90;;;;;;4425141;32;20073;-67
2021/12/17 14:20:43;;;;;;;0.47;0.47;;;7.50;99.90;;;;;;4423625;32;20598;-67
2021/12/17 14:23:14;;;;;;;0.68;0.65;;;7.50;99.90;;;;;;4417397;32;20302;-68
2021/12/17 14:25:42;;;;;;;0.37;0.37;;;7.50;99.90;;;;;;4428233;32;20118;-68
2021/12/17 14:28:27;;;;;;;1.10;0.70;;;7.50;99.90;;;;;;4421790;32;20130;-68
2021/12/17 14:31:01;;;;;;;0.45;0.45;;;7.40;99.90;;;;;;4423688;32;20057;-68
2021/12/17 14:33:32;;;;;;;1.25;1.02;;;7.40;99.90;;;;;;4422125;32;20081;-68
2021/12/17 14:36:08;;;;;;;0.65;0.65;;;7.40;99.90;;;;;;4422851;32;20073;-68
2021/12/17 14:38:46;;;;;;;0.52;0.52;;;7.40;99.90;;;;;;4414120;32;20395;-68
2021/12/17 14:41:17;;;;;;;3.10;1.40;;;7.30;99.90;;;;;;4420946;32;20085;-68
2021/12/17 14:43:51;;;;;;;0.30;0.30;;;7.30;99.90;;;;;;4414235;32;20110;-68
2021/12/17 14:46:23;;;;;;;0.30;0.30;;;7.40;99.90;;;;;;4410829;32;20065;-68
2021/12/17 15:02:52;;;;;;;0.50;0.50;;;7.40;99.90;;;;;;4421457;32;20065;-68
2021/12/17 15:05:24;;;;;;;0.60;0.60;;;7.40;99.90;;;;;;4421431;32;20077;-67
2021/12/17 15:07:50;;;;;;;0.93;0.62;;;7.50;99.90;;;;;;4421635;32;20057;-68
2021/12/17 15:10:19;;;;;;;0.35;0.35;;;7.50;99.90;;;;;;4420492;32;20076;-68
2021/12/17 15:12:45;;;;;;;0.60;0.60;;;7.40;99.90;;;;;;4418277;32;20086;-68
2021/12/17 15:15:15;;;;;;;0.30;0.30;;;7.30;99.90;;;;;;4419681;32;20085;-67
2021/12/17 15:17:41;;;;;;;0.45;0.45;;;7.30;99.90;;;;;;4415766;32;20129;-68
2021/12/17 15:20:10;;;;;;;0.43;0.35;;;7.30;99.90;;;;;;4421754;32;20136;-67
2021/12/17 15:22:37;;;;;;;6.20;1.17;;;7.40;99.90;;;;;;4426334;32;20510;-68
2021/12/17 15:25:04;;;;;;;0.57;0.40;;;7.40;99.90;;;;;;4420851;32;20070;-68